Time;durP1;ratioP1;P1;durP2;ratioP2;P2;SDS_P1;SDS_P2;PMS_P1;PMS_P2;Temp;Humidity;BMP_temperature;BMP_pressure;BME280_temperature;BME280_humidity;BME280_pressure;Samples;Min_cycle;Max_cycle;Signal;HPM_P1;HPM_P2
2024/02/03 00:01:23;;;;;;;1.58;0.80;;;7.40;99.90;;;;;;4985818;28;20042;-75
2024/02/03 00:03:50;;;;;;;;;;;7.50;99.90;;;;;;4981124;28;20031;-76
2024/02/03 00:06:16;;;;;;;0.20;0.20;;;7.50;99.90;;;;;;4979413;28;19908;-76
2024/02/03 00:08:42;;;;;;;1.35;1.23;;;7.50;99.90;;;;;;4982910;28;20046;-75
2024/02/03 00:11:09;;;;;;;1.85;1.65;;;7.40;99.90;;;;;;4985927;28;20038;-75
2024/02/03 00:13:36;;;;;;;4.25;0.73;;;7.40;99.90;;;;;;4991415;28;20038;-75
2024/02/03 00:16:02;;;;;;;3.80;2.00;;;7.40;99.90;;;;;;4993661;28;20757;-76
2024/02/03 00:18:29;;;;;;;1.25;1.15;;;7.40;99.90;;;;;;4987553;28;20035;-76
2024/02/03 00:20:56;;;;;;;1.05;0.80;;;7.40;99.90;;;;;;4989291;28;20448;-76
2024/02/03 00:23:22;;;;;;;1.98;1.55;;;7.40;99.90;;;;;;4989856;28;20039;-76
2024/02/03 00:25:48;;;;;;;0.68;0.68;;;7.40;99.90;;;;;;4983114;28;20022;-76
2024/02/03 00:28:15;;;;;;;1.08;1.00;;;7.30;99.90;;;;;;4982730;28;20035;-75
2024/02/03 00:30:41;;;;;;;1.17;0.95;;;7.30;99.90;;;;;;4989093;28;20030;-76
2024/02/03 00:33:08;;;;;;;1.55;1.45;;;7.30;99.90;;;;;;4987625;28;20037;-76
2024/02/03 00:35:34;;;;;;;0.93;0.93;;;7.40;99.90;;;;;;4985629;28;20042;-75
2024/02/03 00:38:00;;;;;;;1.27;0.80;;;7.40;99.90;;;;;;4984650;28;20053;-76
2024/02/03 00:40:26;;;;;;;26.55;1.27;;;7.40;99.90;;;;;;4985531;28;20037;-76
2024/02/03 00:42:52;;;;;;;2.65;0.82;;;7.50;99.90;;;;;;4989755;28;20038;-76
2024/02/03 00:45:19;;;;;;;1.00;1.00;;;7.50;99.90;;;;;;4986500;28;20034;-75
2024/02/03 00:47:45;;;;;;;1.42;1.33;;;7.60;99.90;;;;;;4983726;28;20554;-74
2024/02/03 00:50:14;;;;;;;1.35;1.13;;;7.60;99.90;;;;;;4983213;28;20042;-74
2024/02/03 00:52:43;;;;;;;1.50;0.70;;;7.50;99.90;;;;;;4989979;28;20031;-76
2024/02/03 00:55:10;;;;;;;0.85;0.80;;;7.50;99.90;;;;;;4988851;28;20483;-75
2024/02/03 00:57:36;;;;;;;1.08;0.93;;;7.50;99.90;;;;;;4989060;28;20049;-76
2024/02/03 01:00:04;;;;;;;1.75;1.50;;;7.50;99.90;;;;;;4983105;28;20041;-75
2024/02/03 01:02:30;;;;;;;1.58;1.48;;;7.60;99.90;;;;;;4988180;28;20487;-75
2024/02/03 01:04:57;;;;;;;0.75;0.75;;;7.60;99.90;;;;;;4987332;28;20360;-75
2024/02/03 01:07:23;;;;;;;0.75;0.55;;;7.70;99.90;;;;;;4987326;28;20047;-75
2024/02/03 01:09:49;;;;;;;0.55;0.55;;;7.80;98.60;;;;;;4984709;28;20019;-76
2024/02/03 01:12:16;;;;;;;0.57;0.57;;;7.80;88.60;;;;;;4987695;28;20368;-75
2024/02/03 01:14:43;;;;;;;1.67;1.58;;;7.80;92.30;;;;;;4988048;28;20030;-76
2024/02/03 01:17:09;;;;;;;1.20;0.75;;;7.80;92.70;;;;;;4986813;28;20026;-75
2024/02/03 01:19:36;;;;;;;0.50;0.47;;;7.80;90.70;;;;;;5000273;28;20030;-75
2024/02/03 01:22:03;;;;;;;1.30;0.65;;;7.70;90.90;;;;;;4983962;28;20035;-74
2024/02/03 01:24:29;;;;;;;1.42;0.85;;;7.70;90.50;;;;;;4987920;28;20049;-75
2024/02/03 01:26:58;;;;;;;1.88;1.75;;;7.70;93.10;;;;;;4988276;28;20050;-75
2024/02/03 01:29:24;;;;;;;0.70;0.70;;;7.70;88.20;;;;;;4987097;28;20026;-75
2024/02/03 01:31:50;;;;;;;0.68;0.68;;;7.80;75.70;;;;;;4983414;28;20471;-75
2024/02/03 01:34:16;;;;;;;0.95;0.85;;;7.80;64.40;;;;;;4988609;28;20054;-75
2024/02/03 01:36:43;;;;;;;0.52;0.52;;;7.80;61.80;;;;;;4987635;28;20054;-75
2024/02/03 01:39:09;;;;;;;0.20;0.20;;;7.80;66.10;;;;;;4992989;28;20036;-75
2024/02/03 01:41:36;;;;;;;0.50;0.50;;;7.80;74.40;;;;;;4983549;28;20106;-74
2024/02/03 01:44:02;;;;;;;1.70;1.13;;;7.80;76.80;;;;;;4984951;28;20065;-75
2024/02/03 01:46:29;;;;;;;1.25;1.15;;;7.80;69.20;;;;;;4988120;28;20356;-75
2024/02/03 01:48:56;;;;;;;0.90;0.90;;;7.80;69.40;;;;;;4987257;28;20625;-74
2024/02/03 01:51:22;;;;;;;1.27;1.17;;;7.80;72.40;;;;;;4982042;28;20037;-74
2024/02/03 01:53:49;;;;;;;0.85;0.85;;;7.80;84.10;;;;;;4979717;28;20023;-74
2024/02/03 01:56:18;;;;;;;1.38;0.90;;;7.90;78.30;;;;;;4986193;28;20034;-74
2024/02/03 01:58:45;;;;;;;0.77;0.77;;;7.90;66.30;;;;;;4988470;28;20356;-75
2024/02/03 02:01:12;;;;;;;1.30;1.20;;;7.90;64.60;;;;;;4982859;28;20034;-74
2024/02/03 02:03:38;;;;;;;1.23;0.57;;;7.90;70.80;;;;;;4991783;28;20034;-74
2024/02/03 02:06:06;;;;;;;0.85;0.85;;;7.90;72.90;;;;;;4985912;28;20023;-75
2024/02/03 02:08:34;;;;;;;2.33;1.02;;;7.90;73.90;;;;;;4987224;28;20042;-74
2024/02/03 02:11:01;;;;;;;0.73;0.73;;;7.90;74.20;;;;;;4986201;28;20026;-74
2024/02/03 02:13:27;;;;;;;1.45;0.98;;;7.90;83.80;;;;;;4984855;28;20023;-74
2024/02/03 02:15:53;;;;;;;0.60;0.60;;;7.90;79.20;;;;;;4984828;28;20045;-76
2024/02/03 02:18:20;;;;;;;0.20;0.20;;;7.90;78.30;;;;;;4986062;28;20054;-75
2024/02/03 02:20:46;;;;;;;1.27;0.88;;;7.90;81.40;;;;;;4983640;28;20039;-76
2024/02/03 02:23:12;;;;;;;0.10;0.10;;;7.90;83.00;;;;;;4981883;28;20026;-74
2024/02/03 02:25:39;;;;;;;0.70;0.70;;;7.80;83.80;;;;;;4987388;28;20030;-76
2024/02/03 02:28:05;;;;;;;0.80;0.65;;;7.80;82.60;;;;;;4984642;28;20042;-74
2024/02/03 02:30:31;;;;;;;1.13;1.02;;;7.80;90.40;;;;;;4987407;28;20037;-76
2024/02/03 02:32:59;;;;;;;0.38;0.30;;;7.70;91.90;;;;;;4984905;28;20457;-76
2024/02/03 02:35:26;;;;;;;1.10;0.85;;;7.70;97.60;;;;;;4985281;28;20042;-76
2024/02/03 02:37:52;;;;;;;1.48;1.27;;;7.70;99.50;;;;;;4985388;28;20061;-76
2024/02/03 02:40:19;;;;;;;1.02;1.02;;;7.70;99.90;;;;;;4986824;28;20027;-74
2024/02/03 02:42:45;;;;;;;0.80;0.68;;;7.70;99.90;;;;;;4985311;28;20033;-73
2024/02/03 02:45:11;;;;;;;0.68;0.68;;;7.70;99.90;;;;;;4978920;28;20037;-75
2024/02/03 02:47:37;;;;;;;1.40;0.73;;;7.60;99.90;;;;;;5000051;28;20061;-75
2024/02/03 02:50:04;;;;;;;1.38;0.68;;;7.70;99.90;;;;;;4983218;28;20284;-75
2024/02/03 02:52:32;;;;;;;0.28;0.28;;;7.60;99.90;;;;;;4992099;28;20057;-75
2024/02/03 02:54:58;;;;;;;1.33;0.70;;;7.60;99.90;;;;;;4982337;28;20043;-75
2024/02/03 02:57:24;;;;;;;1.00;0.93;;;7.60;99.90;;;;;;4983387;28;20506;-75
2024/02/03 02:59:50;;;;;;;0.30;0.30;;;7.60;99.90;;;;;;4981963;28;20030;-75
2024/02/03 03:02:17;;;;;;;12.48;1.63;;;7.60;99.90;;;;;;4987833;28;20026;-75
2024/02/03 03:04:43;;;;;;;0.55;0.45;;;7.60;99.90;;;;;;4984691;28;20023;-75
2024/02/03 03:07:14;;;;;;;0.45;0.45;;;7.70;99.90;;;;;;4985479;28;20071;-74
2024/02/03 03:09:42;;;;;;;0.20;0.20;;;7.70;99.90;;;;;;4981429;28;20468;-75
2024/02/03 03:12:10;;;;;;;0.93;0.90;;;7.70;99.90;;;;;;4986711;28;20377;-74
2024/02/03 03:14:36;;;;;;;0.40;0.40;;;7.70;99.90;;;;;;4988362;28;20027;-74
2024/02/03 03:17:02;;;;;;;2.72;1.80;;;7.70;99.90;;;;;;4981060;28;20038;-74
2024/02/03 03:19:28;;;;;;;1.45;0.90;;;7.80;99.90;;;;;;4984024;28;20034;-75
2024/02/03 03:21:54;;;;;;;2.13;1.20;;;7.80;99.90;;;;;;4984282;28;20026;-74
2024/02/03 03:24:21;;;;;;;0.45;0.45;;;7.80;99.90;;;;;;4985022;28;20030;-74
2024/02/03 03:26:47;;;;;;;1.60;0.98;;;7.80;99.90;;;;;;4982421;28;20038;-72
2024/02/03 03:29:13;;;;;;;1.13;1.02;;;7.90;99.90;;;;;;4980117;28;20045;-75
2024/02/03 03:31:39;;;;;;;1.42;0.93;;;8.00;99.90;;;;;;4995981;28;20038;-75
2024/02/03 03:34:05;;;;;;;1.50;1.00;;;8.00;99.90;;;;;;4985531;28;20485;-75
2024/02/03 03:36:32;;;;;;;0.70;0.70;;;7.90;99.90;;;;;;4985738;28;20042;-75
2024/02/03 03:38:58;;;;;;;0.20;0.20;;;7.90;99.90;;;;;;4984462;28;20046;-75
2024/02/03 03:41:24;;;;;;;0.77;0.77;;;7.90;99.90;;;;;;4982760;28;20037;-75
2024/02/03 03:43:50;;;;;;;1.33;1.23;;;7.90;99.90;;;;;;4985956;28;20039;-75
2024/02/03 03:46:16;;;;;;;1.95;1.70;;;7.90;99.90;;;;;;4984319;28;20033;-76
2024/02/03 03:48:42;;;;;;;2.20;1.92;;;7.90;99.90;;;;;;4982242;28;20038;-75
2024/02/03 03:51:09;;;;;;;0.77;0.77;;;7.90;99.90;;;;;;4981597;28;20031;-75
2024/02/03 03:53:35;;;;;;;1.10;0.85;;;7.90;99.90;;;;;;4988032;28;20033;-75
2024/02/03 03:56:01;;;;;;;4.03;1.25;;;7.90;99.90;;;;;;4984979;28;20038;-76
2024/02/03 03:58:27;;;;;;;2.75;2.13;;;8.00;99.90;;;;;;4984658;28;20035;-76
2024/02/03 04:00:53;;;;;;;0.38;0.38;;;8.00;99.90;;;;;;4975993;28;20133;-76
2024/02/03 04:03:19;;;;;;;2.00;1.77;;;8.00;99.90;;;;;;4979465;28;20031;-75
2024/02/03 04:05:46;;;;;;;0.75;0.75;;;7.90;99.90;;;;;;4987810;28;20022;-76
2024/02/03 04:08:12;;;;;;;1.40;1.30;;;7.90;99.90;;;;;;4999006;28;20046;-75
2024/02/03 04:10:38;;;;;;;2.05;1.55;;;7.90;99.90;;;;;;4983009;28;20054;-75
2024/02/03 04:13:04;;;;;;;1.50;1.40;;;7.90;99.90;;;;;;4980185;28;20368;-75
2024/02/03 04:15:30;;;;;;;1.00;1.00;;;7.90;99.90;;;;;;4985368;28;20027;-75
2024/02/03 04:17:59;;;;;;;0.95;0.85;;;7.90;99.90;;;;;;4984784;28;20030;-76
2024/02/03 04:20:25;;;;;;;0.82;0.52;;;7.90;99.90;;;;;;4986449;28;20345;-76
2024/02/03 04:22:52;;;;;;;1.30;1.20;;;7.80;99.90;;;;;;4981026;28;20027;-74
2024/02/03 04:25:18;;;;;;;1.83;1.73;;;7.90;99.90;;;;;;4979738;28;20031;-75
2024/02/03 04:27:44;;;;;;;2.28;2.15;;;7.90;99.90;;;;;;4987014;28;20035;-75
2024/02/03 04:30:10;;;;;;;3.03;0.90;;;7.90;99.90;;;;;;4982746;28;20118;-75
2024/02/03 04:32:37;;;;;;;0.77;0.77;;;7.90;99.90;;;;;;4994268;28;20460;-75
2024/02/03 04:35:04;;;;;;;1.23;1.10;;;8.00;99.90;;;;;;4980422;28;20340;-75
2024/02/03 04:37:30;;;;;;;4.97;2.05;;;7.90;99.90;;;;;;4985266;28;20403;-75
2024/02/03 04:39:56;;;;;;;1.92;1.42;;;7.90;99.90;;;;;;4983379;28;20053;-76
2024/02/03 04:42:23;;;;;;;0.93;0.73;;;7.90;99.90;;;;;;4984530;28;20049;-76
2024/02/03 04:44:49;;;;;;;0.60;0.60;;;7.80;99.90;;;;;;4980337;28;20039;-75
2024/02/03 04:47:15;;;;;;;1.30;1.20;;;7.80;99.90;;;;;;4983892;28;20026;-75
2024/02/03 04:49:41;;;;;;;2.10;1.60;;;7.90;99.90;;;;;;4984784;28;20034;-75
2024/02/03 04:52:07;;;;;;;1.13;1.02;;;7.90;99.90;;;;;;4986256;28;20045;-75
2024/02/03 04:54:34;;;;;;;2.17;2.00;;;7.80;99.90;;;;;;4979247;28;20047;-75
2024/02/03 04:57:00;;;;;;;1.33;1.20;;;7.80;99.90;;;;;;4982114;28;20033;-75
2024/02/03 04:59:26;;;;;;;1.35;1.25;;;7.80;99.90;;;;;;4988720;28;20031;-75
2024/02/03 05:01:52;;;;;;;0.70;0.70;;;7.80;99.90;;;;;;4986676;28;20038;-75
2024/02/03 05:04:19;;;;;;;0.88;0.85;;;7.80;99.90;;;;;;4983765;28;20515;-75
2024/02/03 05:06:45;;;;;;;1.10;0.85;;;7.80;99.90;;;;;;4983101;28;20349;-75
2024/02/03 05:09:11;;;;;;;4.13;1.42;;;7.80;99.90;;;;;;4986492;28;20304;-75
2024/02/03 05:11:37;;;;;;;2.90;1.35;;;7.80;99.90;;;;;;4987243;28;20033;-75
2024/02/03 05:14:03;;;;;;;1.55;0.95;;;7.80;99.90;;;;;;4988389;28;20033;-75
2024/02/03 05:16:30;;;;;;;1.75;1.20;;;7.90;99.90;;;;;;4983719;28;20037;-75
2024/02/03 05:18:56;;;;;;;1.10;1.05;;;7.80;99.90;;;;;;4987108;28;20046;-76
2024/02/03 05:21:22;;;;;;;2.10;0.80;;;7.80;99.90;;;;;;4990078;28;20034;-75
2024/02/03 05:23:48;;;;;;;2.90;2.05;;;7.70;99.90;;;;;;4986426;28;20026;-75
2024/02/03 05:26:14;;;;;;;0.82;0.82;;;7.80;99.20;;;;;;4982010;28;20033;-75
2024/02/03 05:28:40;;;;;;;1.17;0.90;;;7.80;93.60;;;;;;4985150;28;20034;-75
2024/02/03 05:31:06;;;;;;;1.08;0.75;;;7.80;78.40;;;;;;4987121;28;20049;-75
2024/02/03 05:33:34;;;;;;;1.10;1.00;;;7.80;79.60;;;;;;4985530;28;20034;-75
2024/02/03 05:36:00;;;;;;;0.75;0.75;;;7.80;47.90;;;;;;4985648;28;20371;-75
2024/02/03 05:38:26;;;;;;;0.73;0.73;;;7.80;34.10;;;;;;4982729;28;20055;-74
2024/02/03 05:40:53;;;;;;;0.95;0.70;;;7.90;27.80;;;;;;4986476;28;20372;-76
2024/02/03 05:43:19;;;;;;;0.52;0.50;;;7.80;17.70;;;;;;4986017;28;20387;-75
2024/02/03 05:45:45;;;;;;;0.80;0.65;;;7.80;14.90;;;;;;4985755;28;20349;-75
2024/02/03 05:48:11;;;;;;;0.45;0.45;;;7.80;17.20;;;;;;4983806;28;20035;-76
2024/02/03 05:50:38;;;;;;;0.80;0.63;;;7.80;22.20;;;;;;4983138;28;20030;-74
2024/02/03 05:53:04;;;;;;;0.98;0.60;;;7.80;30.40;;;;;;4984398;28;20039;-74
2024/02/03 05:55:30;;;;;;;0.93;0.75;;;7.70;34.70;;;;;;4990757;28;20456;-75
2024/02/03 05:57:56;;;;;;;0.50;0.50;;;7.70;28.10;;;;;;4980821;28;20026;-75
2024/02/03 06:00:23;;;;;;;0.45;0.40;;;7.80;22.90;;;;;;4985790;28;20031;-74
2024/02/03 06:02:49;;;;;;;2.47;1.60;;;7.70;23.30;;;;;;4984810;28;20031;-75
2024/02/03 06:05:15;;;;;;;0.30;0.30;;;7.70;26.10;;;;;;4987355;28;20030;-74
2024/02/03 06:07:42;;;;;;;0.73;0.60;;;7.70;28.70;;;;;;4984058;28;20037;-74
2024/02/03 06:10:08;;;;;;;0.25;0.25;;;7.70;37.20;;;;;;4981820;28;20392;-74
2024/02/03 06:12:34;;;;;;;0.52;0.50;;;7.60;45.50;;;;;;4983903;28;20046;-75
2024/02/03 06:15:00;;;;;;;0.60;0.55;;;7.60;46.30;;;;;;4986956;28;20352;-74
2024/02/03 06:17:27;;;;;;;0.60;0.60;;;7.60;41.20;;;;;;4986427;28;20035;-74
2024/02/03 06:19:53;;;;;;;1.08;1.08;;;7.60;45.40;;;;;;4983971;28;20026;-75
2024/02/03 06:22:19;;;;;;;0.40;0.40;;;7.60;45.30;;;;;;4981597;28;20034;-74
2024/02/03 06:24:45;;;;;;;0.82;0.82;;;7.60;49.90;;;;;;4985033;28;20030;-75
2024/02/03 06:27:11;;;;;;;1.35;0.85;;;7.60;55.20;;;;;;4985757;28;20383;-75
2024/02/03 06:29:38;;;;;;;0.88;0.75;;;7.60;45.60;;;;;;4985218;28;20053;-75
2024/02/03 06:32:04;;;;;;;1.30;0.73;;;7.60;40.30;;;;;;4986054;28;20375;-75
2024/02/03 06:34:30;;;;;;;0.43;0.43;;;7.60;40.90;;;;;;4985832;28;20034;-75
2024/02/03 06:36:56;;;;;;;0.50;0.50;;;7.60;40.00;;;;;;4987330;28;20054;-75
2024/02/03 06:39:22;;;;;;;0.30;0.30;;;7.60;33.40;;;;;;4984477;28;20037;-75
2024/02/03 06:41:49;;;;;;;0.20;0.20;;;7.60;38.20;;;;;;4983804;28;20026;-76
2024/02/03 06:44:15;;;;;;;0.10;0.10;;;7.50;43.10;;;;;;4980116;28;20066;-75
2024/02/03 06:46:41;;;;;;;0.45;0.45;;;7.60;44.70;;;;;;4986279;28;20034;-75
2024/02/03 06:49:07;;;;;;;0.20;0.20;;;7.50;42.10;;;;;;4984866;28;20050;-74
2024/02/03 06:51:33;;;;;;;0.15;0.15;;;7.60;39.60;;;;;;4983122;28;20445;-74
2024/02/03 06:53:59;;;;;;;0.57;0.57;;;7.60;37.70;;;;;;4984438;28;20022;-75
2024/02/03 06:56:26;;;;;;;0.82;0.47;;;7.60;30.40;;;;;;4983079;28;20034;-74
2024/02/03 06:58:52;;;;;;;0.60;0.60;;;7.60;32.60;;;;;;4987401;28;20026;-74
2024/02/03 07:01:18;;;;;;;0.20;0.20;;;7.50;40.50;;;;;;4985298;28;20041;-74
2024/02/03 07:03:44;;;;;;;0.47;0.38;;;7.60;28.80;;;;;;4965455;28;20037;-74
2024/02/03 07:06:11;;;;;;;0.20;0.20;;;7.60;33.60;;;;;;4984049;28;20375;-74
2024/02/03 07:08:37;;;;;;;0.10;0.10;;;7.60;35.30;;;;;;4985290;28;20047;-74
2024/02/03 07:11:03;;;;;;;0.10;0.10;;;7.60;44.40;;;;;;4986374;28;20039;-75
2024/02/03 07:13:29;;;;;;;0.60;0.57;;;7.50;38.70;;;;;;4980664;28;20372;-75
2024/02/03 07:15:56;;;;;;;0.95;0.75;;;7.50;40.00;;;;;;4982533;28;20033;-75
2024/02/03 07:18:23;;;;;;;0.20;0.20;;;7.60;31.40;;;;;;4985161;28;20037;-75
2024/02/03 07:20:49;;;;;;;0.20;0.20;;;7.60;27.30;;;;;;4984888;28;20046;-73
2024/02/03 07:23:15;;;;;;;0.10;0.10;;;7.60;22.90;;;;;;4984153;28;20038;-73
2024/02/03 07:25:42;;;;;;;0.47;0.47;;;7.60;19.00;;;;;;4983389;28;20030;-73
2024/02/03 07:28:08;;;;;;;0.20;0.20;;;7.60;14.80;;;;;;4983212;28;20031;-73
2024/02/03 07:30:34;;;;;;;0.20;0.20;;;7.70;14.40;;;;;;4986423;28;20421;-73
2024/02/03 07:33:04;;;;;;;1.63;1.45;;;7.70;11.10;;;;;;4982488;28;20049;-73
2024/02/03 07:35:30;;;;;;;0.73;0.73;;;7.70;10.20;;;;;;4979643;28;20026;-72
2024/02/03 07:37:57;;;;;;;0.47;0.47;;;7.70;4.80;;;;;;4978135;28;20046;-73
2024/02/03 07:40:23;;;;;;;4.97;0.38;;;7.70;5.20;;;;;;4985333;28;20038;-73
2024/02/03 07:42:49;;;;;;;2.97;0.85;;;7.70;5.20;;;;;;4984195;28;20042;-73
2024/02/03 07:45:15;;;;;;;0.57;0.57;;;7.70;5.80;;;;;;4981683;28;20403;-73
2024/02/03 07:47:41;;;;;;;0.25;0.17;;;7.80;1.00;;;;;;4979677;28;20465;-73
2024/02/03 07:50:08;;;;;;;0.10;0.10;;;7.80;2.90;;;;;;4983609;28;20472;-75
2024/02/03 07:52:35;;;;;;;0.25;0.25;;;7.80;1.00;;;;;;4983635;28;20026;-72
2024/02/03 07:55:03;;;;;;;0.13;0.13;;;7.80;1.00;;;;;;4999106;28;20030;-75
2024/02/03 07:57:29;;;;;;;0.35;0.35;;;7.80;1.00;;;;;;4981575;28;20027;-74
2024/02/03 07:59:56;;;;;;;0.20;0.20;;;7.80;1.00;;;;;;4995431;28;20161;-73
2024/02/03 08:02:23;;;;;;;0.25;0.25;;;7.80;1.00;;;;;;4982721;28;20057;-73
2024/02/03 08:04:49;;;;;;;0.25;0.25;;;7.80;1.00;;;;;;4984298;28;20069;-73
2024/02/03 08:07:15;;;;;;;0.20;0.20;;;7.80;1.00;;;;;;4980311;28;20035;-72
2024/02/03 08:09:41;;;;;;;0.45;0.45;;;7.90;1.00;;;;;;4982681;28;20043;-73
2024/02/03 08:12:08;;;;;;;0.30;0.30;;;7.90;1.00;;;;;;4981389;28;20455;-73
2024/02/03 08:14:34;;;;;;;0.13;0.13;;;7.90;1.00;;;;;;4986621;28;20046;-73
2024/02/03 08:17:00;;;;;;;0.22;0.22;;;7.90;1.00;;;;;;4980057;28;20031;-74
2024/02/03 08:19:26;;;;;;;0.30;0.30;;;8.00;1.00;;;;;;4979675;28;20041;-73
2024/02/03 08:21:52;;;;;;;0.10;0.10;;;8.00;1.00;;;;;;4984677;28;20038;-73
2024/02/03 08:24:19;;;;;;;0.10;0.10;;;8.00;1.00;;;;;;4986643;28;20027;-74
2024/02/03 08:26:46;;;;;;;0.10;0.10;;;8.10;1.00;;;;;;4987499;28;20037;-74
2024/02/03 08:29:12;;;;;;;0.30;0.30;;;8.10;1.00;;;;;;4981037;28;20066;-74
2024/02/03 08:31:38;;;;;;;0.30;0.30;;;8.20;1.00;;;;;;4988226;28;20029;-74
2024/02/03 08:34:04;;;;;;;0.15;0.15;;;8.20;1.00;;;;;;4986085;28;20038;-74
2024/02/03 08:36:30;;;;;;;0.30;0.30;;;8.20;1.00;;;;;;4986487;28;20050;-75
2024/02/03 08:38:56;;;;;;;0.10;0.10;;;8.30;1.00;;;;;;4984021;28;20050;-78
2024/02/03 08:41:22;;;;;;;0.65;0.52;;;8.40;1.00;;;;;;4981590;28;20039;-76
2024/02/03 08:43:49;;;;;;;0.20;0.20;;;8.40;1.00;;;;;;4983633;28;20031;-75
2024/02/03 08:46:16;;;;;;;0.70;0.70;;;8.40;1.00;;;;;;4985915;28;20466;-76
2024/02/03 08:48:42;;;;;;;0.52;0.32;;;8.50;1.00;;;;;;4988862;28;20502;-75
2024/02/03 08:51:08;;;;;;;0.10;0.10;;;8.60;1.00;;;;;;4999391;28;20458;-76
2024/02/03 08:53:34;;;;;;;0.10;0.10;;;8.60;1.00;;;;;;4985006;28;20043;-75
2024/02/03 08:56:00;;;;;;;0.10;0.10;;;8.60;1.00;;;;;;4987316;28;20919;-76
2024/02/03 08:58:27;;;;;;;0.20;0.20;;;8.60;1.00;;;;;;4988794;28;20041;-75
2024/02/03 09:00:53;;;;;;;0.10;0.10;;;8.60;1.00;;;;;;4986030;28;20054;-75
2024/02/03 09:03:19;;;;;;;1.17;0.65;;;8.60;1.00;;;;;;4982588;28;20657;-73
2024/02/03 09:05:45;;;;;;;2.05;0.50;;;8.70;1.00;;;;;;4991257;28;20026;-74
2024/02/03 09:08:11;;;;;;;0.10;0.10;;;8.70;1.00;;;;;;4990054;28;20030;-74
2024/02/03 09:10:37;;;;;;;0.52;0.52;;;8.70;1.00;;;;;;4984958;28;20042;-73
2024/02/03 09:13:04;;;;;;;0.20;0.20;;;8.70;1.00;;;;;;4979765;28;20038;-74
2024/02/03 09:15:30;;;;;;;0.10;0.10;;;8.70;1.00;;;;;;5003682;28;20444;-73
2024/02/03 09:17:56;;;;;;;1.20;1.08;;;8.80;1.00;;;;;;4988687;28;20034;-73
2024/02/03 09:20:22;;;;;;;0.90;0.40;;;8.80;1.00;;;;;;4986908;28;20039;-75
2024/02/03 09:22:48;;;;;;;0.10;0.10;;;8.80;1.00;;;;;;4982386;28;20027;-73
2024/02/03 09:25:14;;;;;;;0.40;0.40;;;8.90;1.00;;;;;;4984012;28;20367;-76
2024/02/03 09:27:41;;;;;;;0.10;0.10;;;8.90;1.00;;;;;;4986978;28;20042;-76
2024/02/03 09:30:08;;;;;;;0.10;0.10;;;9.00;1.00;;;;;;4988338;28;20447;-73
2024/02/03 09:32:34;;;;;;;0.20;0.20;;;9.10;99.90;;;;;;4987382;28;20035;-75
2024/02/03 09:35:01;;;;;;;1.17;0.52;;;9.20;99.90;;;;;;4986162;28;20027;-76
2024/02/03 09:37:27;;;;;;;8.60;1.25;;;9.20;99.90;;;;;;4986919;28;20531;-75
2024/02/03 09:39:55;;;;;;;0.30;0.30;;;9.30;99.90;;;;;;4988549;28;20503;-74
2024/02/03 09:42:25;;;;;;;0.82;0.82;;;9.20;99.90;;;;;;4985927;28;20467;-73
2024/02/03 09:44:51;;;;;;;0.22;0.22;;;9.20;99.90;;;;;;4984169;28;20057;-73
2024/02/03 09:47:18;;;;;;;0.55;0.55;;;9.20;99.90;;;;;;4983930;28;20034;-73
2024/02/03 09:49:44;;;;;;;0.38;0.38;;;9.20;99.90;;;;;;4988206;28;20037;-73
2024/02/03 09:52:16;;;;;;;0.20;0.20;;;9.20;99.90;;;;;;4985141;28;20373;-74
2024/02/03 09:54:46;;;;;;;0.68;0.55;;;9.20;99.90;;;;;;4983516;28;20046;-73
2024/02/03 09:57:13;;;;;;;0.30;0.30;;;9.20;99.90;;;;;;4982714;28;20031;-75
2024/02/03 09:59:40;;;;;;;1.05;0.55;;;9.20;99.90;;;;;;4992018;28;20356;-74
2024/02/03 10:02:06;;;;;;;0.40;0.40;;;9.10;99.90;;;;;;4986016;28;20464;-74
2024/02/03 10:04:39;;;;;;;0.45;0.45;;;9.20;99.90;;;;;;4985351;28;20490;-74
2024/02/03 10:07:06;;;;;;;0.50;0.50;;;9.20;99.90;;;;;;4988834;28;20034;-75
2024/02/03 10:09:32;;;;;;;0.50;0.50;;;9.20;99.90;;;;;;4989753;28;20026;-74
2024/02/03 10:11:59;;;;;;;1.02;1.02;;;9.20;99.90;;;;;;4991263;28;20030;-74
2024/02/03 10:14:25;;;;;;;1.70;1.05;;;9.20;99.90;;;;;;4986167;28;20050;-74
2024/02/03 10:16:52;;;;;;;1.05;0.65;;;9.30;99.90;;;;;;4983565;28;20039;-74
2024/02/03 10:19:21;;;;;;;1.25;1.15;;;9.30;99.90;;;;;;4980188;28;20042;-74
2024/02/03 10:21:49;;;;;;;1.27;1.15;;;9.30;99.90;;;;;;4983947;28;20031;-74
2024/02/03 10:24:25;;;;;;;0.77;0.77;;;9.40;99.90;;;;;;4985437;28;20042;-74
2024/02/03 10:27:03;;;;;;;0.20;0.20;;;9.40;99.90;;;;;;4985676;28;20464;-74
2024/02/03 10:29:29;;;;;;;0.50;0.50;;;9.50;99.90;;;;;;4983485;28;20033;-74
2024/02/03 10:31:55;;;;;;;0.30;0.30;;;9.50;99.90;;;;;;4985060;28;20041;-76
2024/02/03 10:34:22;;;;;;;0.20;0.20;;;9.50;99.90;;;;;;4984108;28;20058;-76
2024/02/03 10:36:49;;;;;;;0.30;0.30;;;9.50;99.90;;;;;;4984004;28;20050;-74
2024/02/03 10:39:15;;;;;;;0.40;0.40;;;9.50;99.90;;;;;;4984088;28;20031;-74
2024/02/03 10:41:43;;;;;;;0.55;0.55;;;9.50;99.90;;;;;;4986667;28;20037;-74
2024/02/03 10:44:10;;;;;;;0.55;0.47;;;9.60;99.90;;;;;;4985755;28;20033;-74
2024/02/03 10:46:40;;;;;;;0.65;0.45;;;9.50;99.90;;;;;;4987148;28;20337;-74
2024/02/03 10:49:16;;;;;;;0.20;0.20;;;9.50;99.90;;;;;;4984176;28;20038;-74
2024/02/03 10:51:48;;;;;;;0.52;0.45;;;9.60;99.90;;;;;;4981044;28;20041;-73
2024/02/03 10:54:17;;;;;;;0.43;0.43;;;9.60;99.90;;;;;;4984836;28;20038;-74
2024/02/03 10:56:49;;;;;;;0.40;0.40;;;9.50;99.90;;;;;;5001309;28;20039;-74
2024/02/03 10:59:19;;;;;;;0.20;0.20;;;9.50;99.90;;;;;;4980685;28;20042;-75
2024/02/03 11:01:46;;;;;;;2.95;0.57;;;9.50;99.90;;;;;;4981803;28;20045;-74
2024/02/03 11:04:16;;;;;;;0.10;0.10;;;9.40;99.90;;;;;;4982593;28;20030;-75
2024/02/03 11:06:47;;;;;;;0.20;0.20;;;9.40;99.90;;;;;;5002102;28;20472;-74
2024/02/03 11:09:19;;;;;;;0.20;0.20;;;9.50;99.90;;;;;;4982977;28;20034;-74
2024/02/03 11:11:47;;;;;;;0.15;0.15;;;9.50;99.90;;;;;;4989410;28;20042;-74
2024/02/03 11:14:19;;;;;;;0.10;0.10;;;9.50;99.90;;;;;;4985013;28;20468;-75
2024/02/03 11:16:58;;;;;;;0.20;0.20;;;9.50;99.90;;;;;;4988454;28;20030;-75
2024/02/03 11:19:44;;;;;;;0.20;0.20;;;9.50;99.90;;;;;;4986870;28;20022;-74
2024/02/03 11:22:15;;;;;;;0.10;0.10;;;9.50;99.90;;;;;;4983165;28;20034;-77
2024/02/03 11:24:43;;;;;;;0.50;0.50;;;9.50;99.90;;;;;;4980164;28;20043;-77
2024/02/03 11:27:09;;;;;;;0.30;0.30;;;9.50;99.90;;;;;;4982280;28;20033;-77
2024/02/03 11:29:36;;;;;;;0.57;0.30;;;9.40;99.90;;;;;;4989011;28;20045;-75
2024/02/03 11:32:04;;;;;;;2.13;1.38;;;9.50;99.90;;;;;;4988297;28;20042;-74
2024/02/03 11:34:35;;;;;;;9.50;2.97;;;9.50;99.90;;;;;;4987264;28;20026;-75
2024/02/03 11:37:02;;;;;;;;;;;9.60;99.90;;;;;;4990395;28;20396;-74
2024/02/03 11:39:35;;;;;;;1.52;1.42;;;9.60;99.90;;;;;;4990244;28;19913;-74
2024/02/03 11:42:06;;;;;;;1.27;0.88;;;9.70;99.90;;;;;;4988572;28;20034;-74
2024/02/03 11:44:47;;;;;;;3.20;1.30;;;9.80;99.90;;;;;;4984335;28;20023;-73
2024/02/03 11:47:18;;;;;;;;;;;9.90;99.90;;;;;;4988960;28;20034;-75
2024/02/03 11:49:45;;;;;;;;;;;10.00;99.90;;;;;;4986995;28;19918;-74
2024/02/03 11:52:11;;;;;;;1.20;0.60;;;10.10;99.90;;;;;;4988651;28;19917;-74
2024/02/03 11:54:37;;;;;;;0.20;0.20;;;10.00;99.90;;;;;;4967902;28;20499;-75
2024/02/03 11:57:04;;;;;;;1.95;1.58;;;10.10;99.90;;;;;;4981733;28;20031;-74
2024/02/03 11:59:31;;;;;;;1.13;1.02;;;10.10;99.90;;;;;;4986337;28;20026;-74
2024/02/03 12:01:58;;;;;;;1.30;1.20;;;10.10;99.90;;;;;;4984187;28;20023;-74
2024/02/03 12:04:26;;;;;;;5.15;3.60;;;10.10;99.90;;;;;;4978592;28;20031;-74
2024/02/03 12:06:54;;;;;;;3.70;0.88;;;10.20;99.90;;;;;;4979131;28;20039;-75
2024/02/03 12:09:21;;;;;;;1.45;0.93;;;10.30;99.90;;;;;;4982744;28;20034;-74
2024/02/03 12:11:52;;;;;;;1.15;1.05;;;10.50;99.90;;;;;;4982018;28;20038;-74
2024/02/03 12:14:19;;;;;;;0.52;0.35;;;10.60;99.90;;;;;;4978208;28;20019;-74
2024/02/03 12:16:46;;;;;;;0.50;0.50;;;10.60;99.90;;;;;;4981054;28;20043;-74
2024/02/03 12:19:12;;;;;;;0.20;0.20;;;10.70;99.90;;;;;;4983523;28;20027;-74
2024/02/03 12:21:39;;;;;;;0.30;0.30;;;10.60;97.90;;;;;;4982239;28;20356;-75
2024/02/03 12:24:06;;;;;;;0.10;0.10;;;10.60;99.90;;;;;;4983315;28;20026;-74
2024/02/03 12:26:33;;;;;;;0.20;0.20;;;10.60;99.90;;;;;;4978927;28;20367;-74
2024/02/03 12:29:00;;;;;;;0.10;0.10;;;10.50;99.90;;;;;;4981048;28;20376;-74
2024/02/03 12:31:26;;;;;;;0.10;0.10;;;10.40;99.90;;;;;;4982682;28;20070;-74
2024/02/03 12:33:53;;;;;;;0.10;0.10;;;10.50;99.90;;;;;;4984436;28;20022;-74
2024/02/03 12:36:19;;;;;;;0.20;0.20;;;10.50;99.90;;;;;;4982250;28;20042;-74
2024/02/03 12:38:46;;;;;;;0.10;0.10;;;10.50;99.90;;;;;;4983030;28;20051;-74
2024/02/03 12:41:12;;;;;;;1.45;0.43;;;10.50;99.90;;;;;;4983369;28;20034;-74
2024/02/03 12:43:38;;;;;;;1.17;0.73;;;10.60;99.90;;;;;;4980502;28;20407;-75
2024/02/03 12:46:05;;;;;;;0.10;0.10;;;10.70;97.20;;;;;;4979524;28;20034;-73
2024/02/03 12:48:31;;;;;;;0.17;0.17;;;10.60;99.70;;;;;;4980106;28;20472;-73
2024/02/03 12:50:59;;;;;;;0.10;0.10;;;10.50;99.90;;;;;;4983444;28;20026;-74
2024/02/03 12:53:28;;;;;;;0.10;0.10;;;10.50;99.90;;;;;;4982116;28;20038;-73
2024/02/03 12:55:57;;;;;;;0.10;0.10;;;10.50;99.90;;;;;;4983237;28;20353;-74